Nelsonville, Wisconsin
Current Conditions -  °F | °C
As of 5:15 PM on Friday 19 Dec 2014 (Local Time) from KSTE Reporting Station
Broken Clouds Broken Clouds  
Wind Chill: 15°   Ceiling: 1600
Heat Index: 22°   Visibility: 10mi
Dew Point: 18°   Wind: 5mph
Humidity: 85%   Direction: 200°SSW
Pressure: 30.27"   Gusts: NA
Location:  44.49°N, 89.31°W
Report Text: KSTE 192315Z AUTO 20004KT 10SM BKN016 M06/M08 A3027 RMK AO2 T10581080
Loading
Personal Weather Stations






























Interactive Weather Map New forecast layout! Learn more

10-Day Weather Forecast

Advertisements
Track Severe Weather on mobile